createdAt,value
2023-02-04T00:01:52.021Z,8.63
2023-02-04T00:05:53.515Z,6.78
2023-02-04T00:09:57.175Z,10.50
2023-02-04T00:13:58.698Z,7.78
2023-02-04T00:18:00.163Z,6.05
2023-02-04T00:22:03.784Z,6.53
2023-02-04T00:26:05.583Z,6.70
2023-02-04T00:30:10.263Z,7.20
2023-02-04T00:34:11.733Z,5.32
2023-02-04T00:38:15.677Z,5.32
2023-02-04T00:42:17.427Z,5.43
2023-02-04T00:46:19.051Z,6.28
2023-02-04T00:50:20.632Z,7.03
2023-02-04T00:54:25.638Z,5.22
2023-02-04T00:58:27.196Z,4.55
2023-02-04T01:02:28.877Z,4.43
2023-02-04T01:06:30.456Z,6.55
2023-02-04T01:10:37.455Z,5.88
2023-02-04T01:14:39.147Z,6.55
2023-02-04T01:18:40.674Z,8.48
2023-02-04T01:22:42.085Z,7.65
2023-02-04T01:26:43.521Z,12.70
2023-02-04T01:30:50.739Z,4.18
2023-02-04T01:34:52.179Z,8.25
2023-02-04T01:38:54.128Z,3.65
2023-02-04T01:42:57.075Z,3.72
2023-02-04T01:47:01.657Z,5.18
2023-02-04T01:51:06.485Z,4.40
2023-02-04T01:55:19.667Z,5.03
2023-02-04T01:59:21.839Z,4.93
2023-02-04T02:03:23.376Z,3.03
2023-02-04T02:07:24.887Z,4.10
2023-02-04T02:11:29.650Z,3.92
2023-02-04T02:15:31.481Z,6.05
2023-02-04T02:19:36.558Z,6.32
2023-02-04T02:23:57.283Z,3.33
2023-02-04T02:28:11.604Z,5.10
2023-02-04T02:32:14.736Z,11.48
2023-02-04T02:36:20.014Z,6.07
2023-02-04T02:40:21.851Z,7.57
2023-02-04T02:44:24.176Z,4.63
2023-02-04T02:48:29.409Z,4.65
2023-02-04T02:52:35.784Z,3.03
2023-02-04T02:56:37.398Z,4.93
2023-02-04T03:00:41.768Z,7.85
2023-02-04T03:04:48.405Z,6.65
2023-02-04T03:09:04.893Z,9.05
2023-02-04T03:13:16.111Z,7.20
2023-02-04T03:17:17.670Z,4.30
2023-02-04T03:21:24.170Z,7.10
2023-02-04T03:25:34.475Z,8.68
2023-02-04T03:29:43.329Z,5.53
2023-02-04T03:33:47.745Z,11.10
2023-02-04T03:37:50.495Z,9.45
2023-02-04T03:42:01.833Z,6.97
2023-02-04T03:46:03.656Z,3.97
2023-02-04T03:50:09.893Z,7.32
2023-02-04T03:54:14.814Z,7.25
2023-02-04T03:58:20.966Z,7.22
2023-02-04T04:02:22.526Z,9.77
2023-02-04T04:06:24.179Z,12.00
2023-02-04T04:10:29.594Z,13.57
2023-02-04T04:14:31.486Z,8.82
2023-02-04T04:18:34.012Z,12.63
2023-02-04T04:22:35.627Z,9.40
2023-02-04T04:26:48.125Z,4.03
2023-02-04T04:30:49.998Z,6.22
2023-02-04T04:34:51.832Z,7.38
2023-02-04T04:38:53.368Z,7.38
2023-02-04T04:42:54.852Z,13.25
2023-02-04T04:47:09.546Z,5.93
2023-02-04T04:51:37.632Z,9.23
2023-02-04T04:55:39.208Z,10.43
2023-02-04T04:59:40.758Z,13.00
2023-02-04T05:03:58.965Z,7.43
2023-02-04T05:08:00.532Z,14.15
2023-02-04T05:12:02.922Z,11.23
2023-02-04T05:16:04.615Z,11.57
2023-02-04T05:20:06.459Z,14.43
2023-02-04T05:24:24.522Z,32.03
2023-02-04T05:28:41.200Z,28.48
2023-02-04T05:32:42.832Z,54.50
2023-02-04T05:36:56.944Z,35.70
2023-02-04T05:40:58.398Z,19.20
2023-02-04T05:44:59.916Z,16.58
2023-02-04T05:49:03.460Z,15.40
2023-02-04T05:53:06.548Z,19.45
2023-02-04T05:57:25.928Z,15.70
2023-02-04T06:01:41.299Z,19.52
2023-02-04T06:05:44.269Z,17.75
2023-02-04T06:09:45.963Z,14.15
2023-02-04T06:13:47.382Z,17.60
2023-02-04T06:17:48.937Z,15.00
2023-02-04T06:21:50.519Z,13.27
2023-02-04T06:25:56.873Z,15.98
2023-02-04T06:30:09.197Z,15.10
2023-02-04T06:34:10.786Z,21.50
2023-02-04T06:38:17.072Z,15.60
2023-02-04T06:42:18.599Z,18.17
2023-02-04T06:46:20.123Z,14.77
2023-02-04T06:50:30.207Z,17.23
2023-02-04T06:54:32.257Z,16.08
2023-02-04T06:58:33.925Z,26.60
2023-02-04T07:02:43.032Z,21.25
2023-02-04T07:06:51.720Z,17.23
2023-02-04T07:10:53.301Z,14.20
2023-02-04T07:14:54.954Z,18.00
2023-02-04T07:18:56.672Z,18.15
2023-02-04T07:22:58.205Z,26.77
2023-02-04T07:27:06.932Z,21.92
2023-02-04T07:36:58.728Z,21.42
2023-02-04T07:41:25.305Z,10.27
2023-02-04T07:45:27.258Z,19.33
2023-02-04T08:05:36.712Z,14.25
2023-02-04T08:09:38.555Z,18.77
2023-02-04T08:13:40.234Z,16.83
2023-02-04T08:17:41.933Z,13.77
2023-02-04T08:21:43.775Z,16.63
2023-02-04T08:25:45.625Z,21.05
2023-02-04T08:29:47.066Z,12.63
2023-02-04T08:33:50.879Z,14.30
2023-02-04T08:37:53.099Z,19.20
2023-02-04T08:41:54.649Z,13.35
2023-02-04T08:45:56.095Z,21.15
2023-02-04T08:49:57.503Z,17.83
2023-02-04T08:53:59.175Z,20.13
2023-02-04T08:58:01.400Z,15.00
2023-02-04T09:02:03.129Z,16.08
2023-02-04T09:06:05.544Z,13.55
2023-02-04T09:10:42.077Z,12.98
2023-02-04T09:14:44.127Z,17.90
2023-02-04T09:18:45.880Z,14.70
2023-02-04T09:22:48.200Z,14.23
2023-02-04T09:26:50.950Z,15.07
2023-02-04T09:30:52.502Z,10.13
2023-02-04T09:34:54.580Z,10.52
2023-02-04T09:38:56.637Z,15.75
2023-02-04T09:43:03.009Z,15.57
2023-02-04T09:47:04.415Z,14.80
2023-02-04T09:51:07.594Z,12.30
2023-02-04T09:55:20.262Z,10.90
2023-02-04T09:59:23.206Z,9.90
2023-02-04T10:03:24.919Z,14.95
2023-02-04T10:07:27.681Z,16.85
2023-02-04T10:11:33.364Z,19.58
2023-02-04T10:15:38.706Z,11.80
2023-02-04T10:20:23.557Z,10.93
2023-02-04T10:24:30.587Z,11.40
2023-02-04T10:28:36.970Z,9.65
2023-02-04T10:32:38.367Z,7.07
2023-02-04T10:36:42.796Z,13.02
2023-02-04T10:40:46.185Z,8.25
2023-02-04T10:44:48.307Z,10.68
2023-02-04T10:48:50.038Z,12.52
2023-02-04T10:52:55.510Z,23.13
2023-02-04T10:57:25.768Z,17.50
2023-02-04T11:01:28.898Z,10.13
2023-02-04T11:05:33.321Z,10.57
2023-02-04T11:09:34.883Z,10.88
2023-02-04T11:13:42.177Z,13.73
2023-02-04T11:17:44.014Z,11.32
2023-02-04T11:21:46.553Z,11.10
2023-02-04T11:25:48.831Z,11.15
2023-02-04T11:29:51.547Z,16.83
2023-02-04T11:34:32.177Z,13.55
2023-02-04T11:38:34.230Z,9.48
2023-02-04T11:42:40.820Z,7.72
2023-02-04T11:46:42.666Z,13.45
2023-02-04T11:50:55.413Z,14.77
2023-02-04T11:54:59.463Z,13.07
2023-02-04T11:59:01.113Z,16.75
2023-02-04T12:03:08.260Z,16.30
2023-02-04T12:07:13.140Z,15.20
2023-02-04T12:11:30.919Z,15.70
2023-02-04T12:15:37.451Z,20.05
2023-02-04T12:19:38.953Z,16.70
2023-02-04T12:23:42.519Z,14.57
2023-02-04T12:27:43.987Z,11.65
2023-02-04T12:31:45.676Z,13.02
2023-02-04T12:35:47.234Z,10.05
2023-02-04T12:39:49.072Z,8.63
2023-02-04T12:43:50.620Z,13.60
2023-02-04T12:47:52.048Z,16.67
2023-02-04T12:51:53.499Z,11.52
2023-02-04T12:55:57.007Z,19.13
2023-02-04T13:00:01.735Z,9.50
2023-02-04T13:04:03.399Z,11.25
2023-02-04T13:08:05.228Z,10.35
2023-02-04T13:12:07.041Z,12.10
2023-02-04T13:16:08.780Z,10.27
2023-02-04T13:20:10.825Z,15.98
2023-02-04T13:24:12.285Z,11.48
2023-02-04T13:28:14.588Z,4.97
2023-02-04T13:32:16.349Z,9.82
2023-02-04T13:36:18.706Z,8.63
2023-02-04T13:40:20.171Z,16.00
2023-02-04T13:44:21.664Z,10.48
2023-02-04T13:48:23.625Z,11.57
2023-02-04T13:52:25.024Z,12.38
2023-02-04T13:56:27.485Z,14.73
2023-02-04T14:00:30.348Z,12.77
2023-02-04T14:04:32.018Z,11.88
2023-02-04T14:08:34.689Z,10.95
2023-02-04T14:12:36.738Z,14.93
2023-02-04T14:16:39.329Z,17.63
2023-02-04T14:20:41.094Z,15.05
2023-02-04T14:24:42.944Z,13.80
2023-02-04T14:28:44.683Z,17.90
2023-02-04T14:32:46.863Z,11.25
2023-02-04T14:36:48.354Z,9.95
2023-02-04T14:40:58.972Z,13.00
2023-02-04T14:45:00.758Z,9.70
2023-02-04T14:49:02.512Z,8.05
2023-02-04T14:53:04.419Z,14.25
2023-02-04T14:57:10.235Z,16.75
2023-02-04T15:01:12.336Z,20.90
2023-02-04T15:05:15.612Z,7.47
2023-02-04T15:09:17.390Z,10.45
2023-02-04T15:13:18.904Z,12.77
2023-02-04T15:17:22.130Z,14.98
2023-02-04T15:21:23.574Z,13.20
2023-02-04T15:25:25.691Z,13.00
2023-02-04T15:29:27.401Z,18.70
2023-02-04T15:33:29.627Z,17.13
2023-02-04T15:37:31.090Z,15.90
2023-02-04T15:41:32.879Z,8.75
2023-02-04T15:45:41.191Z,11.70
2023-02-04T15:49:42.921Z,16.50
2023-02-04T15:53:44.339Z,15.80
2023-02-04T15:57:46.107Z,9.75
2023-02-04T16:01:47.692Z,11.70
2023-02-04T16:05:49.357Z,13.02
2023-02-04T16:09:51.000Z,12.93
2023-02-04T16:13:52.608Z,12.88
2023-02-04T16:17:56.450Z,32.88
2023-02-04T16:21:58.794Z,63.28
2023-02-04T16:26:00.488Z,24.92
2023-02-04T16:30:03.565Z,22.70
2023-02-04T16:34:05.065Z,13.90
2023-02-04T16:38:06.507Z,17.52
2023-02-04T16:42:09.032Z,14.10
2023-02-04T16:46:12.380Z,18.25
2023-02-04T16:50:14.022Z,11.80
2023-02-04T16:54:15.698Z,34.70
2023-02-04T16:58:17.251Z,17.95
2023-02-04T17:02:19.082Z,8.93
2023-02-04T17:06:20.412Z,14.98
2023-02-04T17:10:41.828Z,11.32
2023-02-04T17:14:43.544Z,22.30
2023-02-04T17:18:45.032Z,31.50
2023-02-04T17:22:47.451Z,30.80
2023-02-04T17:26:49.197Z,24.90
2023-02-04T17:30:50.654Z,14.23
2023-02-04T17:34:55.212Z,12.38
2023-02-04T17:39:23.838Z,9.90
2023-02-04T17:43:25.917Z,11.52
2023-02-04T17:47:27.649Z,11.60
2023-02-04T17:51:29.506Z,11.68
2023-02-04T17:55:31.548Z,14.60
2023-02-04T17:59:34.203Z,8.57
2023-02-04T18:03:36.214Z,8.57
2023-02-04T18:07:38.087Z,17.10
2023-02-04T18:11:40.640Z,9.70
2023-02-04T18:15:45.899Z,14.60
2023-02-04T18:19:47.665Z,9.80
2023-02-04T18:24:11.249Z,16.63
2023-02-04T18:28:15.889Z,20.00
2023-02-04T18:32:21.195Z,13.32
2023-02-04T18:36:23.523Z,11.85
2023-02-04T18:40:33.624Z,15.38
2023-02-04T18:44:40.738Z,18.25
2023-02-04T18:49:01.546Z,13.77
2023-02-04T18:53:21.959Z,15.50
2023-02-04T18:57:35.196Z,13.15
2023-02-04T19:01:39.237Z,19.33
2023-02-04T19:05:50.978Z,23.92
2023-02-04T19:09:53.144Z,25.67
2023-02-04T19:13:57.226Z,20.27
2023-02-04T19:18:00.793Z,21.58
2023-02-04T19:22:17.722Z,17.42
2023-02-04T19:26:30.610Z,16.92
2023-02-04T19:30:46.138Z,11.52
2023-02-04T19:34:48.627Z,16.35
2023-02-04T19:39:02.745Z,16.45
2023-02-04T19:43:23.092Z,17.13
2023-02-04T19:48:00.372Z,13.90
2023-02-04T19:56:35.427Z,15.10
2023-02-04T20:00:41.106Z,17.63
2023-02-04T20:04:44.273Z,19.48
2023-02-04T20:08:56.034Z,12.80
2023-02-04T20:13:11.111Z,30.17
2023-02-04T20:17:22.231Z,14.90
2023-02-04T20:21:25.608Z,18.83
2023-02-04T20:25:37.510Z,22.80
2023-02-04T20:29:39.158Z,16.30
2023-02-04T20:33:47.601Z,18.65
2023-02-04T20:37:54.586Z,20.33
2023-02-04T20:42:20.698Z,25.48
2023-02-04T20:46:25.368Z,20.90
2023-02-04T20:50:36.538Z,14.95
2023-02-04T20:54:38.198Z,22.27
2023-02-04T20:58:43.643Z,18.35
2023-02-04T21:02:45.375Z,18.13
2023-02-04T21:06:51.729Z,17.98
2023-02-04T21:10:53.522Z,13.55
2023-02-04T21:14:55.199Z,10.25
2023-02-04T21:18:57.278Z,12.30
2023-02-04T21:22:59.329Z,12.80
2023-02-04T21:27:00.992Z,13.35
2023-02-04T21:31:03.106Z,14.95
2023-02-04T21:35:04.778Z,10.52
2023-02-04T21:39:06.257Z,13.32
2023-02-04T21:43:08.938Z,20.27
2023-02-04T21:47:10.546Z,11.30
2023-02-04T21:51:13.123Z,16.42
2023-02-04T21:55:15.976Z,14.77
2023-02-04T21:59:19.666Z,13.35
2023-02-04T22:03:21.510Z,14.05
2023-02-04T22:07:23.052Z,12.30
2023-02-04T22:11:24.513Z,16.23
2023-02-04T22:15:28.304Z,15.75
2023-02-04T22:19:29.808Z,20.15
2023-02-04T22:23:31.463Z,21.50
2023-02-04T22:27:34.125Z,14.57
2023-02-04T22:32:00.389Z,15.93
2023-02-04T22:36:04.336Z,15.50
2023-02-04T22:40:08.231Z,17.25
2023-02-04T22:44:10.693Z,21.63
2023-02-04T22:48:12.906Z,14.52
2023-02-04T22:52:14.878Z,18.42
2023-02-04T22:56:16.906Z,15.77
2023-02-04T23:00:18.363Z,14.40
2023-02-04T23:04:20.275Z,12.90
2023-02-04T23:08:22.822Z,15.40
2023-02-04T23:12:24.299Z,18.33
2023-02-04T23:16:26.106Z,15.52
2023-02-04T23:20:27.924Z,16.27
2023-02-04T23:24:30.389Z,13.63
2023-02-04T23:28:32.091Z,12.27
2023-02-04T23:32:33.601Z,12.85
2023-02-04T23:36:36.594Z,13.13
2023-02-04T23:40:38.389Z,11.80
2023-02-04T23:44:39.820Z,13.15
2023-02-04T23:48:41.516Z,10.10
2023-02-04T23:52:43.468Z,13.13
2023-02-04T23:56:45.277Z,11.10
